createdAt,value
2023-02-04T00:00:13.698Z,1.27
2023-02-04T00:02:41.519Z,1.72
2023-02-04T00:05:10.647Z,1.76
2023-02-04T00:07:41.419Z,1.59
2023-02-04T00:10:09.580Z,1.59
2023-02-04T00:12:36.732Z,1.45
2023-02-04T00:15:04.524Z,1.55
2023-02-04T00:17:31.529Z,1.29
2023-02-04T00:19:58.332Z,1.34
2023-02-04T00:22:26.900Z,1.83
2023-02-04T00:24:53.694Z,1.83
2023-02-04T00:27:23.101Z,1.27
2023-02-04T00:29:50.035Z,1.51
2023-02-04T00:32:17.297Z,1.84
2023-02-04T00:34:44.208Z,1.69
2023-02-04T00:37:11.426Z,1.96
2023-02-04T00:39:38.383Z,2.02
2023-02-04T00:42:06.003Z,1.80
2023-02-04T00:44:36.779Z,1.72
2023-02-04T00:47:04.621Z,2.09
2023-02-04T00:49:31.907Z,1.94
2023-02-04T00:51:59.061Z,1.99
2023-02-04T00:54:26.409Z,2.01
2023-02-04T00:56:53.261Z,1.63
2023-02-04T00:59:21.342Z,1.90
2023-02-04T01:01:48.342Z,2.17
2023-02-04T01:04:15.246Z,1.91
2023-02-04T01:06:42.160Z,1.87
2023-02-04T01:09:09.399Z,2.18
2023-02-04T01:11:36.644Z,2.09
2023-02-04T01:14:03.581Z,2.32
2023-02-04T01:16:30.623Z,2.38
2023-02-04T01:18:57.596Z,2.14
2023-02-04T01:21:24.736Z,1.90
2023-02-04T01:23:51.923Z,1.86
2023-02-04T01:26:20.093Z,2.11
2023-02-04T01:28:47.316Z,2.19
2023-02-04T01:31:14.700Z,2.33
2023-02-04T01:33:42.035Z,2.04
2023-02-04T01:36:09.480Z,2.15
2023-02-04T01:38:36.539Z,1.92
2023-02-04T01:41:04.362Z,1.65
2023-02-04T01:43:32.420Z,1.97
2023-02-04T01:45:59.961Z,2.14
2023-02-04T01:48:27.169Z,2.05
2023-02-04T01:51:03.466Z,1.98
2023-02-04T01:53:30.539Z,2.28
2023-02-04T01:55:57.737Z,1.95
2023-02-04T01:58:25.483Z,2.40
2023-02-04T02:00:52.712Z,2.08
2023-02-04T02:03:19.761Z,2.50
2023-02-04T02:05:48.543Z,2.13
2023-02-04T02:08:16.822Z,2.08
2023-02-04T02:10:46.364Z,2.09
2023-02-04T02:13:17.568Z,1.92
2023-02-04T02:15:45.133Z,2.08
2023-02-04T02:18:12.718Z,1.92
2023-02-04T02:20:40.233Z,1.92
2023-02-04T02:23:15.804Z,2.08
2023-02-04T02:25:45.119Z,2.00
2023-02-04T02:28:16.411Z,1.75
2023-02-04T02:30:47.691Z,1.88
2023-02-04T02:33:17.528Z,1.51
2023-02-04T02:35:48.585Z,1.60
2023-02-04T02:38:19.487Z,1.82
2023-02-04T02:40:48.210Z,2.07
2023-02-04T02:43:17.984Z,1.89
2023-02-04T02:45:46.020Z,1.89
2023-02-04T02:48:13.275Z,1.59
2023-02-04T02:50:42.360Z,1.26
2023-02-04T02:53:13.975Z,1.78
2023-02-04T02:55:50.620Z,1.84
2023-02-04T03:01:21.472Z,1.99
2023-02-04T03:03:52.121Z,1.66
2023-02-04T03:06:26.941Z,2.04
2023-02-04T03:08:56.249Z,1.74
2023-02-04T03:11:23.955Z,1.92
2023-02-04T03:13:52.837Z,1.30
2023-02-04T03:16:23.314Z,1.10
2023-02-04T03:18:53.261Z,1.17
2023-02-04T03:21:20.400Z,1.57
2023-02-04T03:23:49.774Z,2.05
2023-02-04T03:26:17.027Z,1.53
2023-02-04T03:28:44.339Z,1.34
2023-02-04T03:31:11.240Z,1.68
2023-02-04T03:33:38.265Z,1.86
2023-02-04T03:36:05.483Z,1.39
2023-02-04T03:38:34.124Z,1.37
2023-02-04T03:41:01.581Z,1.85
2023-02-04T03:43:28.480Z,1.65
2023-02-04T03:45:55.344Z,1.52
2023-02-04T03:48:28.511Z,1.40
2023-02-04T03:50:55.606Z,2.23
2023-02-04T03:53:23.072Z,2.37
2023-02-04T03:55:50.006Z,2.51
2023-02-04T03:58:16.828Z,2.19
2023-02-04T04:00:43.780Z,2.05
2023-02-04T04:03:10.771Z,1.89
2023-02-04T04:05:37.780Z,1.81
2023-02-04T04:08:05.228Z,2.28
2023-02-04T04:10:35.581Z,2.64
2023-02-04T04:13:02.680Z,2.21
2023-02-04T04:15:29.643Z,2.21
2023-02-04T04:17:59.509Z,2.34
2023-02-04T04:20:35.530Z,1.75
2023-02-04T04:25:55.985Z,2.10
2023-02-04T04:31:15.313Z,2.46
2023-02-04T04:33:42.896Z,2.12
2023-02-04T04:36:10.075Z,2.13
2023-02-04T04:38:37.704Z,1.68
2023-02-04T04:41:04.647Z,1.79
2023-02-04T04:43:31.521Z,2.28
2023-02-04T04:45:58.526Z,2.12
2023-02-04T04:48:25.743Z,2.27
2023-02-04T04:50:52.613Z,1.95
2023-02-04T04:53:19.947Z,2.11
2023-02-04T04:55:47.976Z,1.59
2023-02-04T04:58:33.743Z,1.81
2023-02-04T05:01:00.878Z,1.91
2023-02-04T05:03:27.807Z,1.96
2023-02-04T05:05:54.973Z,1.90
2023-02-04T05:08:21.763Z,1.86
2023-02-04T05:10:49.394Z,1.95
2023-02-04T05:13:17.892Z,2.21
2023-02-04T05:15:48.260Z,2.30
2023-02-04T05:18:15.248Z,2.53
2023-02-04T05:20:42.473Z,2.32
2023-02-04T05:23:09.393Z,2.37
2023-02-04T05:25:36.586Z,2.84
2023-02-04T05:28:08.875Z,2.92
2023-02-04T05:30:36.106Z,2.88
2023-02-04T05:33:04.159Z,3.10
2023-02-04T05:35:31.055Z,2.42
2023-02-04T05:37:57.872Z,2.18
2023-02-04T05:40:24.719Z,2.62
2023-02-04T05:43:00.428Z,2.51
2023-02-04T05:45:37.076Z,2.30
2023-02-04T05:48:13.555Z,2.72
2023-02-04T05:50:42.801Z,2.66
2023-02-04T05:53:10.008Z,2.99
2023-02-04T05:55:36.938Z,2.84
2023-02-04T05:58:05.110Z,2.30
2023-02-04T06:00:37.061Z,2.15
2023-02-04T06:03:04.239Z,2.30
2023-02-04T06:05:31.795Z,2.03
2023-02-04T06:07:59.074Z,1.98
2023-02-04T06:10:27.135Z,2.56
2023-02-04T06:13:04.923Z,2.33
2023-02-04T06:15:33.006Z,2.26
2023-02-04T06:18:02.910Z,2.20
2023-02-04T06:20:35.536Z,2.35
2023-02-04T06:23:04.766Z,1.98
2023-02-04T06:25:31.721Z,2.07
2023-02-04T06:27:58.802Z,1.76
2023-02-04T06:30:25.898Z,1.45
2023-02-04T06:33:08.158Z,1.40
2023-02-04T06:35:35.085Z,1.35
2023-02-04T06:38:01.884Z,1.33
2023-02-04T06:40:28.783Z,1.31
2023-02-04T06:42:55.729Z,1.24
2023-02-04T06:45:22.748Z,1.43
2023-02-04T06:47:49.790Z,1.41
2023-02-04T06:50:19.278Z,1.73
2023-02-04T06:52:49.485Z,1.68
2023-02-04T06:55:17.710Z,1.64
2023-02-04T06:57:46.854Z,1.62
2023-02-04T07:00:13.969Z,1.86
2023-02-04T07:02:42.595Z,1.80
2023-02-04T07:05:10.142Z,1.41
2023-02-04T07:07:36.875Z,1.79
2023-02-04T07:10:04.520Z,1.45
2023-02-04T07:12:31.457Z,1.63
2023-02-04T07:14:58.437Z,1.52
2023-02-04T07:17:30.984Z,1.74
2023-02-04T07:19:58.134Z,1.53
2023-02-04T07:22:25.091Z,1.39
2023-02-04T07:24:52.106Z,1.62
2023-02-04T07:27:19.193Z,1.50
2023-02-04T07:29:46.174Z,1.61
2023-02-04T07:32:15.533Z,1.93
2023-02-04T07:34:42.557Z,1.59
2023-02-04T07:37:09.428Z,1.85
2023-02-04T07:39:36.660Z,1.71
2023-02-04T07:42:03.849Z,1.69
2023-02-04T07:44:30.843Z,1.79
2023-02-04T07:47:03.256Z,2.06
2023-02-04T07:49:30.462Z,1.60
2023-02-04T07:51:58.150Z,2.19
2023-02-04T07:54:25.085Z,2.03
2023-02-04T07:56:52.011Z,2.14
2023-02-04T07:59:20.013Z,1.95
2023-02-04T08:01:51.614Z,2.20
2023-02-04T08:04:18.613Z,2.78
2023-02-04T08:06:45.462Z,2.84
2023-02-04T08:09:12.665Z,1.98
2023-02-04T08:11:39.494Z,1.55
2023-02-04T08:14:08.740Z,2.12
2023-02-04T08:16:41.160Z,2.52
2023-02-04T08:19:07.965Z,2.86
2023-02-04T08:21:40.599Z,2.82
2023-02-04T08:24:07.514Z,2.22
2023-02-04T08:26:34.224Z,2.97
2023-02-04T08:29:01.082Z,2.33
2023-02-04T08:31:28.401Z,2.25
2023-02-04T08:33:57.770Z,1.93
2023-02-04T08:36:24.740Z,1.83
2023-02-04T08:38:51.761Z,1.97
2023-02-04T08:41:18.547Z,2.52
2023-02-04T08:43:45.510Z,2.56
2023-02-04T08:46:12.834Z,2.16
2023-02-04T08:48:39.997Z,2.57
2023-02-04T08:51:07.066Z,2.73
2023-02-04T08:53:34.055Z,2.47
2023-02-04T08:56:04.071Z,2.81
2023-02-04T08:58:33.389Z,2.72
2023-02-04T09:01:00.416Z,2.74
2023-02-04T09:03:29.260Z,2.78
2023-02-04T09:05:56.434Z,2.57
2023-02-04T09:08:23.877Z,2.91
2023-02-04T09:10:50.932Z,2.45
2023-02-04T09:13:18.717Z,2.48
2023-02-04T09:15:45.600Z,2.81
2023-02-04T09:18:17.685Z,2.85
2023-02-04T09:20:45.457Z,2.69
2023-02-04T09:23:13.594Z,2.54
2023-02-04T09:25:41.313Z,2.75
2023-02-04T09:28:12.810Z,3.08
2023-02-04T09:30:41.136Z,3.22
2023-02-04T09:33:09.618Z,3.49
2023-02-04T09:35:36.639Z,3.52
2023-02-04T09:38:04.211Z,3.33
2023-02-04T09:40:37.617Z,3.30
2023-02-04T09:43:08.931Z,3.46
2023-02-04T09:45:37.442Z,3.90
2023-02-04T09:48:10.036Z,4.02
2023-02-04T09:50:37.749Z,4.02
2023-02-04T09:53:06.684Z,3.79
2023-02-04T09:55:38.343Z,3.80
2023-02-04T09:58:22.924Z,3.33
2023-02-04T10:01:21.343Z,3.48
2023-02-04T10:03:54.395Z,3.24
2023-02-04T10:06:25.616Z,3.52
2023-02-04T10:08:56.128Z,3.74
2023-02-04T10:11:25.866Z,3.51
2023-02-04T10:13:55.277Z,5.36
2023-02-04T10:16:30.423Z,6.68
2023-02-04T10:19:12.853Z,6.76
2023-02-04T10:21:40.689Z,6.34
2023-02-04T10:24:19.055Z,6.08
2023-02-04T10:26:57.150Z,4.71
2023-02-04T10:29:44.830Z,4.61
2023-02-04T10:32:32.555Z,4.66
2023-02-04T10:35:03.585Z,4.53
2023-02-04T10:37:32.402Z,4.18
2023-02-04T10:39:59.354Z,4.16
2023-02-04T10:42:28.653Z,4.27
2023-02-04T10:44:55.798Z,4.39
2023-02-04T10:47:25.583Z,4.49
2023-02-04T10:50:06.488Z,4.62
2023-02-04T10:55:27.350Z,4.93
2023-02-04T10:57:54.442Z,5.04
2023-02-04T11:00:24.282Z,4.87
2023-02-04T11:03:05.660Z,4.93
2023-02-04T11:05:36.517Z,5.80
2023-02-04T11:08:19.560Z,5.33
2023-02-04T11:10:47.059Z,5.52
2023-02-04T11:13:39.541Z,5.55
2023-02-04T11:16:14.893Z,5.82
2023-02-04T11:18:50.717Z,5.69
2023-02-04T11:21:27.760Z,5.34
2023-02-04T11:24:25.793Z,5.56
2023-02-04T11:27:05.850Z,5.62
2023-02-04T11:29:36.617Z,5.69
2023-02-04T11:32:30.609Z,5.80
2023-02-04T11:35:13.507Z,5.83
2023-02-04T11:37:42.776Z,5.73
2023-02-04T11:40:42.160Z,5.67
2023-02-04T11:43:14.359Z,5.70
2023-02-04T11:45:42.393Z,5.61
2023-02-04T11:48:15.653Z,5.14
2023-02-04T11:50:42.601Z,5.35
2023-02-04T11:53:12.275Z,5.63
2023-02-04T11:55:47.396Z,5.50
2023-02-04T11:58:19.566Z,5.65
2023-02-04T12:00:46.865Z,5.64
2023-02-04T12:03:31.642Z,5.64
2023-02-04T12:05:59.456Z,5.45
2023-02-04T12:08:37.082Z,5.24
2023-02-04T12:11:11.664Z,5.29
2023-02-04T12:13:53.393Z,5.05
2023-02-04T12:16:20.854Z,5.53
2023-02-04T12:18:47.648Z,5.50
2023-02-04T12:21:14.656Z,5.28
2023-02-04T12:23:44.561Z,5.15
2023-02-04T12:26:12.081Z,5.44
2023-02-04T12:28:38.968Z,5.13
2023-02-04T12:31:06.086Z,5.27
2023-02-04T12:33:33.081Z,5.46
2023-02-04T12:35:59.867Z,5.65
2023-02-04T12:38:28.133Z,5.18
2023-02-04T12:40:55.038Z,5.42
2023-02-04T12:43:21.857Z,5.44
2023-02-04T12:45:50.212Z,5.57
2023-02-04T12:48:17.290Z,5.36
2023-02-04T12:50:44.174Z,5.59
2023-02-04T12:53:11.188Z,5.39
2023-02-04T12:55:38.065Z,5.32
2023-02-04T12:58:05.008Z,5.46
2023-02-04T13:00:32.037Z,5.54
2023-02-04T13:02:59.322Z,5.60
2023-02-04T13:05:27.070Z,5.46
2023-02-04T13:07:54.015Z,5.32
2023-02-04T13:10:22.018Z,5.38
2023-02-04T13:12:48.833Z,5.54
2023-02-04T13:15:16.253Z,5.42
2023-02-04T13:17:43.535Z,5.33
2023-02-04T13:20:11.079Z,5.52
2023-02-04T13:22:38.026Z,5.16
2023-02-04T13:25:06.288Z,4.91
2023-02-04T13:27:33.232Z,4.82
2023-02-04T13:30:00.210Z,4.64
2023-02-04T13:32:27.435Z,4.50
2023-02-04T13:34:54.184Z,4.30
2023-02-04T13:37:20.993Z,4.03
2023-02-04T13:39:48.026Z,4.11
2023-02-04T13:42:18.053Z,4.00
2023-02-04T13:44:48.125Z,4.00
2023-02-04T13:47:15.105Z,4.03
2023-02-04T13:49:42.223Z,3.95
2023-02-04T13:52:09.154Z,3.98
2023-02-04T13:54:36.812Z,4.40
2023-02-04T13:57:06.869Z,4.53
2023-02-04T13:59:34.056Z,4.42
2023-02-04T14:02:01.093Z,4.69
2023-02-04T14:04:27.944Z,4.82
2023-02-04T14:06:55.987Z,4.90
2023-02-04T14:09:23.395Z,4.64
2023-02-04T14:11:50.414Z,4.58
2023-02-04T14:14:17.445Z,4.52
2023-02-04T14:16:44.680Z,4.57
2023-02-04T14:19:11.609Z,4.87
2023-02-04T14:21:38.459Z,4.60
2023-02-04T14:24:05.460Z,4.61
2023-02-04T14:26:35.525Z,4.69
2023-02-04T14:29:07.649Z,5.03
2023-02-04T14:31:36.727Z,5.23
2023-02-04T14:34:03.916Z,4.73
2023-02-04T14:36:31.342Z,4.91
2023-02-04T14:38:58.199Z,4.88
2023-02-04T14:41:26.506Z,4.63
2023-02-04T14:43:53.893Z,5.08
2023-02-04T14:46:20.619Z,4.83
2023-02-04T14:48:47.486Z,4.69
2023-02-04T14:51:14.335Z,4.96
2023-02-04T14:53:46.084Z,4.83
2023-02-04T14:56:18.333Z,4.83
2023-02-04T14:58:45.532Z,4.97
2023-02-04T15:01:12.266Z,4.91
2023-02-04T15:03:39.285Z,4.74
2023-02-04T15:06:06.494Z,4.01
2023-02-04T15:08:33.608Z,3.52
2023-02-04T15:11:00.880Z,3.43
2023-02-04T15:13:28.772Z,3.33
2023-02-04T15:15:55.656Z,3.14
2023-02-04T15:18:22.888Z,3.03
2023-02-04T15:20:49.976Z,2.88
2023-02-04T15:23:25.872Z,2.47
2023-02-04T15:26:06.515Z,2.37
2023-02-04T15:28:33.346Z,2.61
2023-02-04T15:31:00.303Z,2.65
2023-02-04T15:33:27.241Z,2.67
2023-02-04T15:35:54.413Z,2.79
2023-02-04T15:38:29.403Z,2.90
2023-02-04T15:40:56.700Z,3.02
2023-02-04T15:44:02.768Z,3.21
2023-02-04T15:46:32.361Z,3.27
2023-02-04T15:48:59.585Z,3.39
2023-02-04T15:51:26.663Z,3.36
2023-02-04T15:54:01.577Z,3.23
2023-02-04T15:56:28.450Z,3.35
2023-02-04T15:59:01.427Z,3.15
2023-02-04T16:01:31.993Z,3.12
2023-02-04T16:03:59.420Z,3.08
2023-02-04T16:06:29.001Z,3.31
2023-02-04T16:08:55.684Z,3.17
2023-02-04T16:11:22.786Z,3.18
2023-02-04T16:13:49.457Z,3.21
2023-02-04T16:16:16.200Z,3.20
2023-02-04T16:18:43.601Z,3.18
2023-02-04T16:21:10.412Z,3.08
2023-02-04T16:23:37.273Z,3.23
2023-02-04T16:26:04.549Z,3.31
2023-02-04T16:28:31.437Z,3.41
2023-02-04T16:30:58.424Z,3.18
2023-02-04T16:33:27.052Z,3.21
2023-02-04T16:36:02.595Z,3.29
2023-02-04T16:38:30.703Z,3.33
2023-02-04T16:40:57.679Z,3.31
2023-02-04T16:43:24.716Z,3.25
2023-02-04T16:45:52.279Z,3.28
2023-02-04T16:48:18.885Z,3.23
2023-02-04T16:50:45.676Z,3.20
2023-02-04T16:53:16.434Z,3.15
2023-02-04T16:55:44.414Z,3.11
2023-02-04T16:58:12.381Z,3.26
2023-02-04T17:00:42.564Z,3.15
2023-02-04T17:03:10.522Z,3.28
2023-02-04T17:05:37.882Z,3.31
2023-02-04T17:08:05.722Z,3.27
2023-02-04T17:10:51.485Z,3.08
2023-02-04T17:13:19.020Z,3.16
2023-02-04T17:15:45.809Z,3.16
2023-02-04T17:18:12.534Z,3.14
2023-02-04T17:20:39.451Z,3.27
2023-02-04T17:23:06.400Z,3.29
2023-02-04T17:25:33.707Z,3.28
2023-02-04T17:28:01.013Z,3.20
2023-02-04T17:30:27.956Z,3.24
2023-02-04T17:32:54.670Z,3.21
2023-02-04T17:35:21.740Z,3.16
2023-02-04T17:37:48.714Z,3.10
2023-02-04T17:40:15.647Z,3.01
2023-02-04T17:42:42.606Z,2.99
2023-02-04T17:45:10.988Z,3.03
2023-02-04T17:47:41.242Z,3.09
2023-02-04T17:50:10.086Z,3.17
2023-02-04T17:52:38.442Z,3.19
2023-02-04T17:55:29.047Z,3.07
2023-02-04T17:57:58.670Z,3.18
2023-02-04T18:00:29.140Z,3.20
2023-02-04T18:02:56.334Z,3.15
2023-02-04T18:05:29.212Z,3.08
2023-02-04T18:08:11.657Z,3.15
2023-02-04T18:10:41.641Z,3.10
2023-02-04T18:13:22.321Z,3.01
2023-02-04T18:15:55.334Z,2.94
2023-02-04T18:18:36.756Z,2.88
2023-02-04T18:21:19.864Z,3.09
2023-02-04T18:23:47.754Z,2.95
2023-02-04T18:26:22.271Z,2.77
2023-02-04T18:28:52.609Z,2.84
2023-02-04T18:31:25.708Z,2.87
2023-02-04T18:33:52.645Z,2.98
2023-02-04T18:36:20.865Z,2.97
2023-02-04T18:38:47.845Z,2.92
2023-02-04T18:41:31.790Z,2.85
2023-02-04T18:44:17.649Z,2.95
2023-02-04T18:46:48.057Z,3.23
2023-02-04T18:49:29.458Z,3.09
2023-02-04T18:51:58.995Z,3.02
2023-02-04T18:54:37.497Z,2.93
2023-02-04T18:57:29.780Z,3.00
2023-02-04T19:00:12.424Z,3.06
2023-02-04T19:02:49.327Z,3.01
2023-02-04T19:05:23.641Z,3.08
2023-02-04T19:07:51.491Z,3.05
2023-02-04T19:10:28.252Z,3.06
2023-02-04T19:13:11.046Z,3.17
2023-02-04T19:15:41.685Z,3.06
2023-02-04T19:18:44.692Z,3.07
2023-02-04T19:21:29.000Z,2.95
2023-02-04T19:24:21.977Z,3.00
2023-02-04T19:27:01.415Z,3.06
2023-02-04T19:29:36.897Z,3.02
2023-02-04T19:32:33.097Z,2.99
2023-02-04T19:35:12.750Z,2.96
2023-02-04T19:37:41.353Z,3.10
2023-02-04T19:40:28.964Z,3.01
2023-02-04T19:43:04.090Z,3.21
2023-02-04T19:45:31.131Z,3.00
2023-02-04T19:47:58.240Z,3.09
2023-02-04T19:50:35.199Z,3.15
2023-02-04T19:53:08.999Z,3.05
2023-02-04T19:55:42.634Z,2.97
2023-02-04T19:58:19.489Z,3.05
2023-02-04T20:00:54.427Z,3.05
2023-02-04T20:03:27.881Z,3.02
2023-02-04T20:05:59.676Z,3.09
2023-02-04T20:08:35.123Z,3.14
2023-02-04T20:11:26.049Z,2.84
2023-02-04T20:14:18.722Z,2.99
2023-02-04T20:17:00.773Z,2.87
2023-02-04T20:19:30.288Z,2.96
2023-02-04T20:22:26.563Z,2.94
2023-02-04T20:25:21.927Z,2.99
2023-02-04T20:27:55.502Z,2.91
2023-02-04T20:30:31.039Z,2.84
2023-02-04T20:33:12.873Z,2.77
2023-02-04T20:35:39.625Z,2.58
2023-02-04T20:38:17.582Z,2.70
2023-02-04T20:40:46.786Z,2.55
2023-02-04T20:43:17.257Z,2.44
2023-02-04T20:45:55.012Z,2.47
2023-02-04T20:48:33.198Z,2.45
2023-02-04T20:51:04.967Z,2.26
2023-02-04T20:53:48.173Z,1.94
2023-02-04T20:56:33.942Z,1.21
2023-02-04T20:59:12.978Z,1.05
2023-02-04T21:01:44.934Z,1.58
2023-02-04T21:04:39.389Z,1.27
2023-02-04T21:07:20.616Z,1.13
2023-02-04T21:09:48.306Z,0.98
2023-02-04T21:12:15.943Z,1.22
2023-02-04T21:14:44.541Z,0.99
2023-02-04T21:17:12.021Z,0.99
2023-02-04T21:19:39.115Z,1.34
2023-02-04T21:22:05.980Z,1.23
2023-02-04T21:24:33.381Z,1.16
2023-02-04T21:27:00.290Z,1.15
2023-02-04T21:29:27.262Z,0.93
2023-02-04T21:31:54.885Z,1.19
2023-02-04T21:34:21.910Z,0.75
2023-02-04T21:36:48.900Z,0.80
2023-02-04T21:39:15.874Z,0.87
2023-02-04T21:41:42.748Z,0.90
2023-02-04T21:44:09.448Z,1.00
2023-02-04T21:46:36.387Z,0.61
2023-02-04T21:49:05.040Z,0.59
2023-02-04T21:51:33.370Z,0.41
2023-02-04T21:54:00.992Z,0.60
2023-02-04T21:56:27.834Z,0.37
2023-02-04T21:58:54.587Z,0.24
2023-02-04T22:01:23.060Z,0.19
2023-02-04T22:03:49.824Z,0.31
2023-02-04T22:06:19.864Z,0.39
2023-02-04T22:08:46.719Z,0.34
2023-02-04T22:11:14.174Z,0.40
2023-02-04T22:13:41.932Z,0.52
2023-02-04T22:16:09.027Z,0.87
2023-02-04T22:18:36.028Z,0.83
2023-02-04T22:21:02.964Z,0.46
2023-02-04T22:23:30.234Z,0.56
2023-02-04T22:25:57.006Z,0.39
2023-02-04T22:28:27.047Z,0.50
2023-02-04T22:30:54.372Z,0.37
2023-02-04T22:33:21.480Z,0.55
2023-02-04T22:35:49.703Z,0.59
2023-02-04T22:38:16.504Z,0.52
2023-02-04T22:40:43.403Z,0.45
2023-02-04T22:43:10.284Z,0.29
2023-02-04T22:45:37.066Z,0.28
2023-02-04T22:48:03.913Z,0.46
2023-02-04T22:50:31.891Z,0.51
2023-02-04T22:52:58.676Z,0.61
2023-02-04T22:55:27.964Z,0.44
2023-02-04T22:57:54.713Z,0.22
2023-02-04T23:00:21.672Z,0.36
2023-02-04T23:02:50.797Z,-0.02
2023-02-04T23:05:17.801Z,0.26
2023-02-04T23:07:44.669Z,0.03
2023-02-04T23:10:11.528Z,0.15
2023-02-04T23:12:38.851Z,0.14
2023-02-04T23:15:05.921Z,0.19
2023-02-04T23:17:33.860Z,-0.11
2023-02-04T23:20:06.878Z,0.06
2023-02-04T23:22:41.391Z,-0.07
2023-02-04T23:25:08.545Z,-0.13
2023-02-04T23:27:35.360Z,-0.11
2023-02-04T23:30:02.480Z,-0.26
2023-02-04T23:32:29.894Z,-0.41
2023-02-04T23:34:56.649Z,-0.24
2023-02-04T23:37:24.094Z,-0.36
2023-02-04T23:39:51.027Z,-0.24
2023-02-04T23:42:17.877Z,-0.29
2023-02-04T23:44:44.814Z,-0.46
2023-02-04T23:47:11.792Z,-0.55
2023-02-04T23:49:38.545Z,-0.38
2023-02-04T23:52:07.595Z,-0.46
2023-02-04T23:54:35.500Z,-0.49
2023-02-04T23:57:07.967Z,-0.27
2023-02-04T23:59:36.468Z,-0.33
